sensor_id;sensor_type;location;lat;lon;timestamp;temperature;humidity
32694;DHT22;19084;44.716;10.218;2022-07-18T03:43:09;25.40;99.90
32694;DHT22;19084;44.716;10.218;2022-07-18T03:45:42;25.40;99.90
32694;DHT22;19084;44.716;10.218;2022-07-18T03:48:17;25.30;99.90
32694;DHT22;19084;44.716;10.218;2022-07-18T03:50:51;25.40;99.90
32694;DHT22;19084;44.716;10.218;2022-07-18T03:53:24;25.30;99.90
32694;DHT22;19084;44.716;10.218;2022-07-18T03:55:58;25.30;99.90
32694;DHT22;19084;44.716;10.218;2022-07-18T03:58:32;25.20;99.90
32694;DHT22;19084;44.716;10.218;2022-07-18T04:01:05;25.20;99.90
32694;DHT22;19084;44.716;10.218;2022-07-18T04:03:38;25.20;99.90
32694;DHT22;19084;44.716;10.218;2022-07-18T04:06:11;25.20;99.90
32694;DHT22;19084;44.716;10.218;2022-07-18T04:08:44;25.20;99.90
32694;DHT22;19084;44.716;10.218;2022-07-18T04:11:18;25.20;99.90
32694;DHT22;19084;44.716;10.218;2022-07-18T04:13:56;25.20;99.90
32694;DHT22;19084;44.716;10.218;2022-07-18T04:16:29;25.20;99.90
32694;DHT22;19084;44.716;10.218;2022-07-18T04:19:03;25.20;99.90
32694;DHT22;19084;44.716;10.218;2022-07-18T04:21:36;25.10;99.90
32694;DHT22;19084;44.716;10.218;2022-07-18T04:24:09;25.10;99.90
32694;DHT22;19084;44.716;10.218;2022-07-18T04:26:44;25.10;99.90
32694;DHT22;19084;44.716;10.218;2022-07-18T04:29:17;25.20;99.90
32694;DHT22;19084;44.716;10.218;2022-07-18T04:31:50;25.10;99.90
32694;DHT22;19084;44.716;10.218;2022-07-18T04:34:23;25.10;99.90
32694;DHT22;19084;44.716;10.218;2022-07-18T04:36:56;25.10;99.90
32694;DHT22;19084;44.716;10.218;2022-07-18T04:39:29;25.20;99.90
32694;DHT22;19084;44.716;10.218;2022-07-18T04:42:03;25.20;99.90
32694;DHT22;19084;44.716;10.218;2022-07-18T04:47:09;25.30;99.90
32694;DHT22;19084;44.716;10.218;2022-07-18T04:49:42;25.30;99.90
32694;DHT22;19084;44.716;10.218;2022-07-18T04:52:15;25.30;99.90
32694;DHT22;19084;44.716;10.218;2022-07-18T04:54:49;25.40;99.90
32694;DHT22;19084;44.716;10.218;2022-07-18T04:57:23;25.30;99.90
32694;DHT22;19084;44.716;10.218;2022-07-18T04:59:56;25.30;99.90
32694;DHT22;19084;44.716;10.218;2022-07-18T05:02:29;25.30;99.90
32694;DHT22;19084;44.716;10.218;2022-07-18T05:05:02;25.40;99.90
32694;DHT22;19084;44.716;10.218;2022-07-18T05:07:35;25.30;99.90
32694;DHT22;19084;44.716;10.218;2022-07-18T05:10:11;25.30;99.90
32694;DHT22;19084;44.716;10.218;2022-07-18T05:12:44;25.20;99.90
32694;DHT22;19084;44.716;10.218;2022-07-18T05:15:20;25.30;99.90
32694;DHT22;19084;44.716;10.218;2022-07-18T05:17:53;25.30;99.90
32694;DHT22;19084;44.716;10.218;2022-07-18T05:20:27;25.30;99.90
32694;DHT22;19084;44.716;10.218;2022-07-18T05:23:00;25.30;99.90
32694;DHT22;19084;44.716;10.218;2022-07-18T05:25:33;25.30;99.90
32694;DHT22;19084;44.716;10.218;2022-07-18T05:28:06;25.40;99.90
32694;DHT22;19084;44.716;10.218;2022-07-18T05:30:40;25.40;99.90
32694;DHT22;19084;44.716;10.218;2022-07-18T05:33:12;25.40;99.90
32694;DHT22;19084;44.716;10.218;2022-07-18T05:35:45;25.50;99.90
32694;DHT22;19084;44.716;10.218;2022-07-18T05:38:19;25.60;99.90
32694;DHT22;19084;44.716;10.218;2022-07-18T05:40:52;25.60;99.90
32694;DHT22;19084;44.716;10.218;2022-07-18T05:43:25;25.60;99.90
32694;DHT22;19084;44.716;10.218;2022-07-18T05:45:58;25.60;99.90
32694;DHT22;19084;44.716;10.218;2022-07-18T05:48:31;25.60;99.90
32694;DHT22;19084;44.716;10.218;2022-07-18T05:51:06;25.70;99.90
32694;DHT22;19084;44.716;10.218;2022-07-18T05:53:39;25.70;99.90
32694;DHT22;19084;44.716;10.218;2022-07-18T05:56:13;25.70;99.90
32694;DHT22;19084;44.716;10.218;2022-07-18T05:58:46;25.70;99.90
32694;DHT22;19084;44.716;10.218;2022-07-18T06:01:19;26.10;99.90
32694;DHT22;19084;44.716;10.218;2022-07-18T06:03:53;25.80;99.90
32694;DHT22;19084;44.716;10.218;2022-07-18T06:06:26;25.90;99.90
32694;DHT22;19084;44.716;10.218;2022-07-18T06:08:58;26.30;99.90
32694;DHT22;19084;44.716;10.218;2022-07-18T06:11:31;26.40;99.90
32694;DHT22;19084;44.716;10.218;2022-07-18T06:14:05;26.80;99.90
32694;DHT22;19084;44.716;10.218;2022-07-18T06:16:38;27.10;99.90
32694;DHT22;19084;44.716;10.218;2022-07-18T06:19:11;27.20;99.90
32694;DHT22;19084;44.716;10.218;2022-07-18T06:21:51;27.50;99.90
32694;DHT22;19084;44.716;10.218;2022-07-18T06:24:24;27.50;99.90
32694;DHT22;19084;44.716;10.218;2022-07-18T06:26:58;27.60;99.90
32694;DHT22;19084;44.716;10.218;2022-07-18T06:29:31;27.60;99.90
32694;DHT22;19084;44.716;10.218;2022-07-18T06:32:04;27.70;99.90
32694;DHT22;19084;44.716;10.218;2022-07-18T06:34:37;27.80;99.90
32694;DHT22;19084;44.716;10.218;2022-07-18T06:37:11;28.00;99.90
32694;DHT22;19084;44.716;10.218;2022-07-18T06:39:44;28.20;99.90
32694;DHT22;19084;44.716;10.218;2022-07-18T06:42:17;28.40;99.90
32694;DHT22;19084;44.716;10.218;2022-07-18T06:44:51;28.60;99.90
32694;DHT22;19084;44.716;10.218;2022-07-18T06:47:23;28.90;99.90
32694;DHT22;19084;44.716;10.218;2022-07-18T06:49:56;29.00;99.90
32694;DHT22;19084;44.716;10.218;2022-07-18T06:52:29;29.00;99.90
32694;DHT22;19084;44.716;10.218;2022-07-18T06:55:02;29.20;99.90
32694;DHT22;19084;44.716;10.218;2022-07-18T06:57:36;29.30;99.90
32694;DHT22;19084;44.716;10.218;2022-07-18T07:00:12;29.40;99.90
32694;DHT22;19084;44.716;10.218;2022-07-18T07:02:48;29.50;99.90
32694;DHT22;19084;44.716;10.218;2022-07-18T07:05:21;29.60;99.90
32694;DHT22;19084;44.716;10.218;2022-07-18T07:07:54;29.70;99.90
32694;DHT22;19084;44.716;10.218;2022-07-18T07:10:27;29.70;99.90
32694;DHT22;19084;44.716;10.218;2022-07-18T07:13:01;29.80;99.90
32694;DHT22;19084;44.716;10.218;2022-07-18T07:15:37;29.80;99.90
32694;DHT22;19084;44.716;10.218;2022-07-18T07:18:14;29.90;99.90
32694;DHT22;19084;44.716;10.218;2022-07-18T09:57:24;33.90;95.10
32694;DHT22;19084;44.716;10.218;2022-07-18T10:47:21;35.00;90.50
32694;DHT22;19084;44.716;10.218;2022-07-18T12:00:49;35.60;88.50
32694;DHT22;19084;44.716;10.218;2022-07-18T12:06:14;35.50;88.40
32694;DHT22;19084;44.716;10.218;2022-07-18T12:16:48;35.90;88.10
32694;DHT22;19084;44.716;10.218;2022-07-18T12:32:56;35.90;87.60
32694;DHT22;19084;44.716;10.218;2022-07-18T12:38:12;35.80;87.90
32694;DHT22;19084;44.716;10.218;2022-07-18T12:40:46;35.90;87.80
32694;DHT22;19084;44.716;10.218;2022-07-18T12:43:29;36.00;87.80
32694;DHT22;19084;44.716;10.218;2022-07-18T12:46:09;36.00;87.80
32694;DHT22;19084;44.716;10.218;2022-07-18T12:48:43;36.20;87.10
32694;DHT22;19084;44.716;10.218;2022-07-18T14:19:10;37.40;81.50
32694;DHT22;19084;44.716;10.218;2022-07-18T14:21:42;37.40;82.10
32694;DHT22;19084;44.716;10.218;2022-07-18T14:24:15;37.40;81.30
32694;DHT22;19084;44.716;10.218;2022-07-18T14:26:48;37.30;81.90
32694;DHT22;19084;44.716;10.218;2022-07-18T14:29:21;37.30;82.50
32694;DHT22;19084;44.716;10.218;2022-07-18T14:31:54;37.20;82.10
32694;DHT22;19084;44.716;10.218;2022-07-18T14:34:27;37.20;81.70
32694;DHT22;19084;44.716;10.218;2022-07-18T14:37:03;37.20;81.80
32694;DHT22;19084;44.716;10.218;2022-07-18T14:39:37;37.10;82.00
32694;DHT22;19084;44.716;10.218;2022-07-18T14:42:10;37.10;82.10
32694;DHT22;19084;44.716;10.218;2022-07-18T14:44:45;37.20;82.30
32694;DHT22;19084;44.716;10.218;2022-07-18T14:47:19;37.00;82.10
32694;DHT22;19084;44.716;10.218;2022-07-18T14:49:52;36.90;82.80
32694;DHT22;19084;44.716;10.218;2022-07-18T14:52:25;36.70;83.30
32694;DHT22;19084;44.716;10.218;2022-07-18T14:54:59;36.60;82.80
32694;DHT22;19084;44.716;10.218;2022-07-18T14:57:40;36.60;82.40
32694;DHT22;19084;44.716;10.218;2022-07-18T15:00:27;36.60;82.70
32694;DHT22;19084;44.716;10.218;2022-07-18T15:03:57;36.70;83.10
32694;DHT22;19084;44.716;10.218;2022-07-18T15:07:06;36.70;83.00
32694;DHT22;19084;44.716;10.218;2022-07-18T15:09:56;36.70;83.30
32694;DHT22;19084;44.716;10.218;2022-07-18T15:12:56;36.70;83.30
32694;DHT22;19084;44.716;10.218;2022-07-18T15:15:31;36.70;82.80
32694;DHT22;19084;44.716;10.218;2022-07-18T15:18:17;36.80;83.70
32694;DHT22;19084;44.716;10.218;2022-07-18T15:20:58;36.90;82.80
32694;DHT22;19084;44.716;10.218;2022-07-18T15:23:37;36.90;82.90
32694;DHT22;19084;44.716;10.218;2022-07-18T15:26:21;36.80;82.80
32694;DHT22;19084;44.716;10.218;2022-07-18T15:29:00;36.90;84.00
32694;DHT22;19084;44.716;10.218;2022-07-18T15:31:40;36.80;83.30
32694;DHT22;19084;44.716;10.218;2022-07-18T15:34:13;36.70;83.20
32694;DHT22;19084;44.716;10.218;2022-07-18T15:37:11;36.60;83.60
32694;DHT22;19084;44.716;10.218;2022-07-18T15:39:44;36.70;84.50
32694;DHT22;19084;44.716;10.218;2022-07-18T15:42:17;36.70;84.00
32694;DHT22;19084;44.716;10.218;2022-07-18T15:44:49;36.70;83.50
32694;DHT22;19084;44.716;10.218;2022-07-18T15:47:22;36.60;82.40
32694;DHT22;19084;44.716;10.218;2022-07-18T15:49:55;36.50;82.70
32694;DHT22;19084;44.716;10.218;2022-07-18T15:52:28;36.50;84.30
32694;DHT22;19084;44.716;10.218;2022-07-18T15:55:01;36.40;83.90
32694;DHT22;19084;44.716;10.218;2022-07-18T15:57:35;36.30;83.50
32694;DHT22;19084;44.716;10.218;2022-07-18T16:00:09;36.30;84.00
32694;DHT22;19084;44.716;10.218;2022-07-18T16:02:45;36.30;84.40
32694;DHT22;19084;44.716;10.218;2022-07-18T16:05:19;36.30;84.40
32694;DHT22;19084;44.716;10.218;2022-07-18T16:07:52;36.30;83.80
32694;DHT22;19084;44.716;10.218;2022-07-18T16:10:25;36.20;84.30
32694;DHT22;19084;44.716;10.218;2022-07-18T16:12:58;36.10;84.30
32694;DHT22;19084;44.716;10.218;2022-07-18T16:15:32;36.10;85.10
32694;DHT22;19084;44.716;10.218;2022-07-18T16:18:05;36.10;84.40
32694;DHT22;19084;44.716;10.218;2022-07-18T16:20:41;36.10;84.60
32694;DHT22;19084;44.716;10.218;2022-07-18T16:23:14;36.10;84.80
32694;DHT22;19084;44.716;10.218;2022-07-18T16:25:50;36.10;84.30
32694;DHT22;19084;44.716;10.218;2022-07-18T16:28:24;36.00;84.10
32694;DHT22;19084;44.716;10.218;2022-07-18T16:30:57;35.80;84.20
32694;DHT22;19084;44.716;10.218;2022-07-18T16:33:30;35.70;84.00
32694;DHT22;19084;44.716;10.218;2022-07-18T16:36:04;35.70;84.00
32694;DHT22;19084;44.716;10.218;2022-07-18T16:38:37;35.60;84.50
32694;DHT22;19084;44.716;10.218;2022-07-18T16:41:11;35.60;83.70
32694;DHT22;19084;44.716;10.218;2022-07-18T16:43:45;35.50;83.20
32694;DHT22;19084;44.716;10.218;2022-07-18T16:46:20;35.50;83.50
32694;DHT22;19084;44.716;10.218;2022-07-18T16:48:53;35.40;83.30
32694;DHT22;19084;44.716;10.218;2022-07-18T16:51:29;35.50;84.50
32694;DHT22;19084;44.716;10.218;2022-07-18T16:54:03;35.50;82.80
32694;DHT22;19084;44.716;10.218;2022-07-18T16:56:37;35.40;82.70
32694;DHT22;19084;44.716;10.218;2022-07-18T16:59:11;35.40;82.50
32694;DHT22;19084;44.716;10.218;2022-07-18T17:01:45;35.30;81.60
32694;DHT22;19084;44.716;10.218;2022-07-18T17:04:19;35.20;82.40
32694;DHT22;19084;44.716;10.218;2022-07-18T17:06:52;35.10;82.00
32694;DHT22;19084;44.716;10.218;2022-07-18T17:09:25;35.10;82.30
32694;DHT22;19084;44.716;10.218;2022-07-18T17:11:58;34.90;82.10
32694;DHT22;19084;44.716;10.218;2022-07-18T17:14:31;34.90;81.90
32694;DHT22;19084;44.716;10.218;2022-07-18T17:17:05;34.90;82.80
32694;DHT22;19084;44.716;10.218;2022-07-18T17:19:38;34.80;82.10
32694;DHT22;19084;44.716;10.218;2022-07-18T17:22:12;34.70;82.70
32694;DHT22;19084;44.716;10.218;2022-07-18T17:24:45;34.70;81.80
32694;DHT22;19084;44.716;10.218;2022-07-18T17:27:19;34.60;82.00
32694;DHT22;19084;44.716;10.218;2022-07-18T17:29:52;34.50;82.50
32694;DHT22;19084;44.716;10.218;2022-07-18T17:32:27;34.40;82.80
32694;DHT22;19084;44.716;10.218;2022-07-18T17:35:01;34.30;82.10
32694;DHT22;19084;44.716;10.218;2022-07-18T17:37:43;34.30;82.00
32694;DHT22;19084;44.716;10.218;2022-07-18T17:40:16;34.20;82.40
32694;DHT22;19084;44.716;10.218;2022-07-18T17:42:50;34.10;82.50
32694;DHT22;19084;44.716;10.218;2022-07-18T17:45:23;34.00;82.70
32694;DHT22;19084;44.716;10.218;2022-07-18T17:47:58;34.00;82.10
32694;DHT22;19084;44.716;10.218;2022-07-18T17:50:31;34.00;82.30
32694;DHT22;19084;44.716;10.218;2022-07-18T17:53:05;34.10;82.70
32694;DHT22;19084;44.716;10.218;2022-07-18T17:55:38;33.80;82.90
32694;DHT22;19084;44.716;10.218;2022-07-18T18:00:44;33.60;82.90
32694;DHT22;19084;44.716;10.218;2022-07-18T18:03:17;33.50;82.70
32694;DHT22;19084;44.716;10.218;2022-07-18T18:05:50;33.40;82.70
32694;DHT22;19084;44.716;10.218;2022-07-18T18:08:23;33.40;82.80
32694;DHT22;19084;44.716;10.218;2022-07-18T18:10:56;33.30;82.80
32694;DHT22;19084;44.716;10.218;2022-07-18T18:16:03;33.30;83.20
32694;DHT22;19084;44.716;10.218;2022-07-18T18:21:11;33.10;83.20
32694;DHT22;19084;44.716;10.218;2022-07-18T18:23:44;33.00;83.60
32694;DHT22;19084;44.716;10.218;2022-07-18T18:26:18;33.00;84.00
32694;DHT22;19084;44.716;10.218;2022-07-18T18:28:51;32.90;83.90
32694;DHT22;19084;44.716;10.218;2022-07-18T18:31:24;31.90;83.50
32694;DHT22;19084;44.716;10.218;2022-07-18T18:33:58;32.80;84.30
32694;DHT22;19084;44.716;10.218;2022-07-18T18:36:31;32.80;85.40
32694;DHT22;19084;44.716;10.218;2022-07-18T18:39:24;32.70;84.50
32694;DHT22;19084;44.716;10.218;2022-07-18T18:41:59;32.60;84.90
32694;DHT22;19084;44.716;10.218;2022-07-18T18:44:32;32.50;85.00
32694;DHT22;19084;44.716;10.218;2022-07-18T18:47:06;32.40;85.30
32694;DHT22;19084;44.716;10.218;2022-07-18T18:49:47;32.40;86.20
32694;DHT22;19084;44.716;10.218;2022-07-18T18:52:20;32.30;85.80
32694;DHT22;19084;44.716;10.218;2022-07-18T18:54:53;32.20;85.20
32694;DHT22;19084;44.716;10.218;2022-07-18T18:57:27;32.20;85.30
32694;DHT22;19084;44.716;10.218;2022-07-18T19:00:00;32.10;85.70
32694;DHT22;19084;44.716;10.218;2022-07-18T19:02:34;32.10;85.00
32694;DHT22;19084;44.716;10.218;2022-07-18T19:05:08;32.00;85.10
32694;DHT22;19084;44.716;10.218;2022-07-18T19:07:41;32.00;85.10
32694;DHT22;19084;44.716;10.218;2022-07-18T19:10:15;31.90;85.30
32694;DHT22;19084;44.716;10.218;2022-07-18T19:12:49;31.90;85.10
32694;DHT22;19084;44.716;10.218;2022-07-18T19:15:22;31.90;86.00
32694;DHT22;19084;44.716;10.218;2022-07-18T19:17:59;31.90;85.40
32694;DHT22;19084;44.716;10.218;2022-07-18T19:20:34;30.30;83.80
32694;DHT22;19084;44.716;10.218;2022-07-18T19:23:07;31.80;85.10
32694;DHT22;19084;44.716;10.218;2022-07-18T19:25:42;31.80;85.90
32694;DHT22;19084;44.716;10.218;2022-07-18T19:28:17;31.70;85.70
32694;DHT22;19084;44.716;10.218;2022-07-18T19:30:51;31.70;85.30
32694;DHT22;19084;44.716;10.218;2022-07-18T19:33:25;31.50;85.30
32694;DHT22;19084;44.716;10.218;2022-07-18T19:36:00;31.60;85.40
32694;DHT22;19084;44.716;10.218;2022-07-18T19:38:35;31.50;85.30
32694;DHT22;19084;44.716;10.218;2022-07-18T19:41:10;31.50;85.40
32694;DHT22;19084;44.716;10.218;2022-07-18T19:43:45;31.40;85.60
32694;DHT22;19084;44.716;10.218;2022-07-18T19:46:22;31.30;84.90
32694;DHT22;19084;44.716;10.218;2022-07-18T19:48:59;31.20;84.80
32694;DHT22;19084;44.716;10.218;2022-07-18T19:51:33;31.20;84.90
32694;DHT22;19084;44.716;10.218;2022-07-18T19:54:15;31.20;84.80
32694;DHT22;19084;44.716;10.218;2022-07-18T19:56:49;31.20;85.70
32694;DHT22;19084;44.716;10.218;2022-07-18T19:59:23;31.10;85.00
32694;DHT22;19084;44.716;10.218;2022-07-18T20:01:58;31.00;85.40
32694;DHT22;19084;44.716;10.218;2022-07-18T20:04:32;31.00;85.40
32694;DHT22;19084;44.716;10.218;2022-07-18T20:07:07;30.90;85.20
32694;DHT22;19084;44.716;10.218;2022-07-18T20:09:43;30.90;85.50
32694;DHT22;19084;44.716;10.218;2022-07-18T20:12:17;30.90;85.60
32694;DHT22;19084;44.716;10.218;2022-07-18T20:14:50;30.90;85.60
32694;DHT22;19084;44.716;10.218;2022-07-18T20:17:26;30.80;85.50
32694;DHT22;19084;44.716;10.218;2022-07-18T20:20:00;30.80;86.40
32694;DHT22;19084;44.716;10.218;2022-07-18T20:22:33;30.70;86.10
32694;DHT22;19084;44.716;10.218;2022-07-18T20:25:08;30.70;86.20
32694;DHT22;19084;44.716;10.218;2022-07-18T20:27:50;30.50;86.20
32694;DHT22;19084;44.716;10.218;2022-07-18T20:30:24;30.40;86.10
32694;DHT22;19084;44.716;10.218;2022-07-18T20:32:57;30.40;86.20
32694;DHT22;19084;44.716;10.218;2022-07-18T20:35:31;32.30;88.20
32694;DHT22;19084;44.716;10.218;2022-07-18T20:38:09;30.20;86.80
32694;DHT22;19084;44.716;10.218;2022-07-18T20:40:43;30.10;86.70
32694;DHT22;19084;44.716;10.218;2022-07-18T20:43:17;30.10;87.40
32694;DHT22;19084;44.716;10.218;2022-07-18T20:45:51;30.10;87.10
32694;DHT22;19084;44.716;10.218;2022-07-18T20:48:25;30.00;87.30
32694;DHT22;19084;44.716;10.218;2022-07-18T20:51:00;30.00;87.40
32694;DHT22;19084;44.716;10.218;2022-07-18T20:53:33;30.00;87.40
32694;DHT22;19084;44.716;10.218;2022-07-18T20:56:08;29.90;87.50
32694;DHT22;19084;44.716;10.218;2022-07-18T20:58:42;29.90;88.80
32694;DHT22;19084;44.716;10.218;2022-07-18T21:01:16;30.00;88.50
32694;DHT22;19084;44.716;10.218;2022-07-18T21:03:51;30.00;88.80
32694;DHT22;19084;44.716;10.218;2022-07-18T21:06:25;30.00;88.50
32694;DHT22;19084;44.716;10.218;2022-07-18T21:08:59;30.00;88.90
32694;DHT22;19084;44.716;10.218;2022-07-18T21:11:33;29.90;89.40
32694;DHT22;19084;44.716;10.218;2022-07-18T21:14:07;29.90;89.50
32694;DHT22;19084;44.716;10.218;2022-07-18T21:16:59;29.90;89.60
32694;DHT22;19084;44.716;10.218;2022-07-18T21:19:33;29.70;89.90
32694;DHT22;19084;44.716;10.218;2022-07-18T21:22:08;29.70;90.20
32694;DHT22;19084;44.716;10.218;2022-07-18T21:24:42;29.60;90.20
32694;DHT22;19084;44.716;10.218;2022-07-18T21:27:19;29.60;90.40
32694;DHT22;19084;44.716;10.218;2022-07-18T21:29:52;29.60;90.20
32694;DHT22;19084;44.716;10.218;2022-07-18T21:32:25;29.50;90.50
32694;DHT22;19084;44.716;10.218;2022-07-18T21:34:59;29.40;90.80
32694;DHT22;19084;44.716;10.218;2022-07-18T21:37:32;29.30;90.80
32694;DHT22;19084;44.716;10.218;2022-07-18T21:40:06;29.30;91.30
32694;DHT22;19084;44.716;10.218;2022-07-18T21:42:39;29.30;91.20
32694;DHT22;19084;44.716;10.218;2022-07-18T21:45:13;29.20;91.00
32694;DHT22;19084;44.716;10.218;2022-07-18T21:47:54;29.10;91.40
32694;DHT22;19084;44.716;10.218;2022-07-18T21:50:27;29.10;91.30
32694;DHT22;19084;44.716;10.218;2022-07-18T21:55:34;29.00;91.30
32694;DHT22;19084;44.716;10.218;2022-07-18T21:58:07;28.70;91.20
32694;DHT22;19084;44.716;10.218;2022-07-18T22:00:39;28.80;91.20
32694;DHT22;19084;44.716;10.218;2022-07-18T22:03:12;28.80;91.20
32694;DHT22;19084;44.716;10.218;2022-07-18T22:05:45;28.70;91.30
32694;DHT22;19084;44.716;10.218;2022-07-18T22:08:18;28.70;91.50
32694;DHT22;19084;44.716;10.218;2022-07-18T22:10:51;28.60;91.50
32694;DHT22;19084;44.716;10.218;2022-07-18T22:13:23;28.60;91.50
32694;DHT22;19084;44.716;10.218;2022-07-18T22:15:56;28.50;91.60
32694;DHT22;19084;44.716;10.218;2022-07-18T22:18:29;28.50;91.60
32694;DHT22;19084;44.716;10.218;2022-07-18T22:21:02;28.40;91.50
32694;DHT22;19084;44.716;10.218;2022-07-18T22:23:35;28.40;92.10
32694;DHT22;19084;44.716;10.218;2022-07-18T22:26:08;28.30;91.80
32694;DHT22;19084;44.716;10.218;2022-07-18T22:28:41;28.30;91.70
32694;DHT22;19084;44.716;10.218;2022-07-18T22:31:14;28.30;92.00
32694;DHT22;19084;44.716;10.218;2022-07-18T22:33:48;28.20;92.10
32694;DHT22;19084;44.716;10.218;2022-07-18T22:36:21;28.10;92.20
32694;DHT22;19084;44.716;10.218;2022-07-18T22:41:27;28.00;92.40
32694;DHT22;19084;44.716;10.218;2022-07-18T22:46:33;27.90;92.60
32694;DHT22;19084;44.716;10.218;2022-07-18T22:49:05;27.80;92.50
32694;DHT22;19084;44.716;10.218;2022-07-18T22:51:40;27.80;92.70
32694;DHT22;19084;44.716;10.218;2022-07-18T22:54:13;27.70;92.80
32694;DHT22;19084;44.716;10.218;2022-07-18T22:56:46;27.80;93.10
32694;DHT22;19084;44.716;10.218;2022-07-18T22:59:19;27.70;93.10
32694;DHT22;19084;44.716;10.218;2022-07-18T23:01:52;27.70;93.20
32694;DHT22;19084;44.716;10.218;2022-07-18T23:04:25;27.60;93.10
32694;DHT22;19084;44.716;10.218;2022-07-18T23:06:58;27.70;93.20
32694;DHT22;19084;44.716;10.218;2022-07-18T23:09:32;27.60;93.30
32694;DHT22;19084;44.716;10.218;2022-07-18T23:12:05;27.50;93.20
32694;DHT22;19084;44.716;10.218;2022-07-18T23:14:38;25.70;92.70
32694;DHT22;19084;44.716;10.218;2022-07-18T23:27:30;27.30;93.80
32694;DHT22;19084;44.716;10.218;2022-07-18T23:30:06;27.40;93.70
32694;DHT22;19084;44.716;10.218;2022-07-18T23:32:39;27.20;93.60
32694;DHT22;19084;44.716;10.218;2022-07-18T23:35:12;27.30;93.70
32694;DHT22;19084;44.716;10.218;2022-07-18T23:37:45;27.20;93.90
32694;DHT22;19084;44.716;10.218;2022-07-18T23:40:18;27.10;93.90
32694;DHT22;19084;44.716;10.218;2022-07-18T23:42:51;27.00;94.00
32694;DHT22;19084;44.716;10.218;2022-07-18T23:45:24;27.00;94.20
32694;DHT22;19084;44.716;10.218;2022-07-18T23:50:30;26.90;94.30
32694;DHT22;19084;44.716;10.218;2022-07-18T23:53:03;26.90;94.30
32694;DHT22;19084;44.716;10.218;2022-07-18T23:55:36;26.80;94.50
32694;DHT22;19084;44.716;10.218;2022-07-18T23:58:09;26.70;94.70
